sensor_id;sensor_type;location;lat;lon;timestamp;temperature;humidity
37806;DHT22;25082;50.870;0.022;2023-08-01T00:00:49;20.10;78.30
37806;DHT22;25082;50.870;0.022;2023-08-01T00:03:14;20.10;78.30
37806;DHT22;25082;50.870;0.022;2023-08-01T00:05:41;20.20;78.40
37806;DHT22;25082;50.870;0.022;2023-08-01T00:08:11;20.20;78.50
37806;DHT22;25082;50.870;0.022;2023-08-01T00:10:38;20.10;78.40
37806;DHT22;25082;50.870;0.022;2023-08-01T00:13:04;20.10;78.40
37806;DHT22;25082;50.870;0.022;2023-08-01T00:15:30;20.10;78.40
37806;DHT22;25082;50.870;0.022;2023-08-01T00:17:56;20.10;78.40
37806;DHT22;25082;50.870;0.022;2023-08-01T00:20:22;20.10;78.40
37806;DHT22;25082;50.870;0.022;2023-08-01T00:22:47;20.10;78.40
37806;DHT22;25082;50.870;0.022;2023-08-01T00:25:13;20.10;78.40
37806;DHT22;25082;50.870;0.022;2023-08-01T00:27:39;20.10;78.40
37806;DHT22;25082;50.870;0.022;2023-08-01T00:30:06;20.10;78.40
37806;DHT22;25082;50.870;0.022;2023-08-01T00:32:32;20.10;78.30
37806;DHT22;25082;50.870;0.022;2023-08-01T00:34:58;20.10;78.30
37806;DHT22;25082;50.870;0.022;2023-08-01T00:37:23;20.10;78.30
37806;DHT22;25082;50.870;0.022;2023-08-01T00:39:49;20.10;78.30
37806;DHT22;25082;50.870;0.022;2023-08-01T00:42:15;20.10;78.90
37806;DHT22;25082;50.870;0.022;2023-08-01T00:44:41;20.00;78.30
37806;DHT22;25082;50.870;0.022;2023-08-01T00:47:08;20.00;78.30
37806;DHT22;25082;50.870;0.022;2023-08-01T00:49:34;20.10;78.30
37806;DHT22;25082;50.870;0.022;2023-08-01T00:52:00;20.00;78.20
37806;DHT22;25082;50.870;0.022;2023-08-01T00:54:26;20.00;78.20
37806;DHT22;25082;50.870;0.022;2023-08-01T00:56:52;20.00;78.20
37806;DHT22;25082;50.870;0.022;2023-08-01T00:59:18;20.00;78.30
37806;DHT22;25082;50.870;0.022;2023-08-01T01:01:44;20.00;78.20
37806;DHT22;25082;50.870;0.022;2023-08-01T01:04:10;20.00;78.20
37806;DHT22;25082;50.870;0.022;2023-08-01T01:06:46;20.00;78.20
37806;DHT22;25082;50.870;0.022;2023-08-01T01:09:17;20.00;78.20
37806;DHT22;25082;50.870;0.022;2023-08-01T01:11:43;20.00;78.20
37806;DHT22;25082;50.870;0.022;2023-08-01T01:14:09;20.00;78.20
37806;DHT22;25082;50.870;0.022;2023-08-01T01:16:35;20.00;78.20
37806;DHT22;25082;50.870;0.022;2023-08-01T01:19:01;20.00;78.20
37806;DHT22;25082;50.870;0.022;2023-08-01T01:21:26;20.00;78.20
37806;DHT22;25082;50.870;0.022;2023-08-01T01:23:52;20.00;78.20
37806;DHT22;25082;50.870;0.022;2023-08-01T01:26:19;20.00;78.20
37806;DHT22;25082;50.870;0.022;2023-08-01T01:28:50;20.00;78.20
37806;DHT22;25082;50.870;0.022;2023-08-01T01:31:17;20.00;78.20
37806;DHT22;25082;50.870;0.022;2023-08-01T01:33:43;20.00;78.10
37806;DHT22;25082;50.870;0.022;2023-08-01T01:36:09;20.00;78.20
37806;DHT22;25082;50.870;0.022;2023-08-01T01:38:35;20.00;78.10
37806;DHT22;25082;50.870;0.022;2023-08-01T01:41:00;20.00;78.10
37806;DHT22;25082;50.870;0.022;2023-08-01T01:43:26;20.00;78.10
37806;DHT22;25082;50.870;0.022;2023-08-01T01:45:52;20.00;78.30
37806;DHT22;25082;50.870;0.022;2023-08-01T01:48:17;20.00;78.10
37806;DHT22;25082;50.870;0.022;2023-08-01T01:50:43;20.00;78.10
37806;DHT22;25082;50.870;0.022;2023-08-01T01:53:09;20.00;78.10
37806;DHT22;25082;50.870;0.022;2023-08-01T01:55:35;20.00;78.10
37806;DHT22;25082;50.870;0.022;2023-08-01T01:58:00;20.00;78.10
37806;DHT22;25082;50.870;0.022;2023-08-01T02:00:26;20.00;78.00
37806;DHT22;25082;50.870;0.022;2023-08-01T02:02:52;20.00;78.00
37806;DHT22;25082;50.870;0.022;2023-08-01T02:05:17;20.00;78.00
37806;DHT22;25082;50.870;0.022;2023-08-01T02:07:43;20.00;78.00
37806;DHT22;25082;50.870;0.022;2023-08-01T02:10:09;19.90;78.00
37806;DHT22;25082;50.870;0.022;2023-08-01T02:12:35;19.90;78.00
37806;DHT22;25082;50.870;0.022;2023-08-01T02:15:01;20.00;78.10
37806;DHT22;25082;50.870;0.022;2023-08-01T02:17:27;20.00;78.00
37806;DHT22;25082;50.870;0.022;2023-08-01T02:19:53;19.90;78.00
37806;DHT22;25082;50.870;0.022;2023-08-01T02:22:18;20.00;78.00
37806;DHT22;25082;50.870;0.022;2023-08-01T02:24:44;19.90;78.00
37806;DHT22;25082;50.870;0.022;2023-08-01T02:27:10;19.90;78.00
37806;DHT22;25082;50.870;0.022;2023-08-01T02:29:35;19.90;78.00
37806;DHT22;25082;50.870;0.022;2023-08-01T02:32:01;19.90;77.90
37806;DHT22;25082;50.870;0.022;2023-08-01T02:34:27;19.90;78.00
37806;DHT22;25082;50.870;0.022;2023-08-01T02:36:53;20.00;78.10
37806;DHT22;25082;50.870;0.022;2023-08-01T02:39:25;20.00;78.10
37806;DHT22;25082;50.870;0.022;2023-08-01T02:41:50;19.90;78.00
37806;DHT22;25082;50.870;0.022;2023-08-01T02:44:16;20.00;78.10
37806;DHT22;25082;50.870;0.022;2023-08-01T02:46:42;19.90;78.00
37806;DHT22;25082;50.870;0.022;2023-08-01T02:49:07;19.90;78.00
37806;DHT22;25082;50.870;0.022;2023-08-01T02:51:33;19.90;78.00
37806;DHT22;25082;50.870;0.022;2023-08-01T02:53:59;20.00;78.10
37806;DHT22;25082;50.870;0.022;2023-08-01T02:56:24;19.90;78.00
37806;DHT22;25082;50.870;0.022;2023-08-01T02:58:50;19.90;78.00
37806;DHT22;25082;50.870;0.022;2023-08-01T03:01:17;20.00;78.10
37806;DHT22;25082;50.870;0.022;2023-08-01T03:03:43;19.90;78.00
37806;DHT22;25082;50.870;0.022;2023-08-01T03:06:08;19.90;78.00
37806;DHT22;25082;50.870;0.022;2023-08-01T03:08:34;19.90;78.00
37806;DHT22;25082;50.870;0.022;2023-08-01T03:11:00;19.90;78.00
37806;DHT22;25082;50.870;0.022;2023-08-01T03:13:26;19.90;78.00
37806;DHT22;25082;50.870;0.022;2023-08-01T03:15:52;19.90;78.00
37806;DHT22;25082;50.870;0.022;2023-08-01T03:18:18;19.90;78.00
37806;DHT22;25082;50.870;0.022;2023-08-01T03:20:43;19.90;78.00
37806;DHT22;25082;50.870;0.022;2023-08-01T03:23:09;20.00;78.00
37806;DHT22;25082;50.870;0.022;2023-08-01T03:25:35;19.90;78.00
37806;DHT22;25082;50.870;0.022;2023-08-01T03:28:00;19.90;78.00
37806;DHT22;25082;50.870;0.022;2023-08-01T03:30:26;19.90;78.00
37806;DHT22;25082;50.870;0.022;2023-08-01T03:32:52;19.90;78.00
37806;DHT22;25082;50.870;0.022;2023-08-01T03:35:18;19.90;78.00
37806;DHT22;25082;50.870;0.022;2023-08-01T03:37:43;19.90;78.00
37806;DHT22;25082;50.870;0.022;2023-08-01T03:40:09;19.90;78.00
37806;DHT22;25082;50.870;0.022;2023-08-01T03:42:36;19.90;78.00
37806;DHT22;25082;50.870;0.022;2023-08-01T03:45:02;19.90;78.00
37806;DHT22;25082;50.870;0.022;2023-08-01T03:47:28;19.90;77.90
37806;DHT22;25082;50.870;0.022;2023-08-01T03:49:54;19.90;78.00
37806;DHT22;25082;50.870;0.022;2023-08-01T03:52:20;19.90;77.90
37806;DHT22;25082;50.870;0.022;2023-08-01T03:54:46;19.90;77.90
37806;DHT22;25082;50.870;0.022;2023-08-01T03:57:12;19.90;77.90
37806;DHT22;25082;50.870;0.022;2023-08-01T03:59:37;19.90;77.90
37806;DHT22;25082;50.870;0.022;2023-08-01T04:02:03;19.90;77.90
37806;DHT22;25082;50.870;0.022;2023-08-01T04:04:29;19.90;77.90
37806;DHT22;25082;50.870;0.022;2023-08-01T04:06:56;19.90;78.00
37806;DHT22;25082;50.870;0.022;2023-08-01T04:09:22;19.90;77.90
37806;DHT22;25082;50.870;0.022;2023-08-01T04:11:48;19.90;77.90
37806;DHT22;25082;50.870;0.022;2023-08-01T04:14:14;19.90;78.00
37806;DHT22;25082;50.870;0.022;2023-08-01T04:16:40;19.80;77.90
37806;DHT22;25082;50.870;0.022;2023-08-01T04:19:05;19.90;78.00
37806;DHT22;25082;50.870;0.022;2023-08-01T04:21:31;19.90;78.00
37806;DHT22;25082;50.870;0.022;2023-08-01T04:23:57;19.80;77.90
37806;DHT22;25082;50.870;0.022;2023-08-01T04:26:22;19.80;77.90
37806;DHT22;25082;50.870;0.022;2023-08-01T04:28:48;19.80;77.90
37806;DHT22;25082;50.870;0.022;2023-08-01T04:31:14;19.80;77.90
37806;DHT22;25082;50.870;0.022;2023-08-01T04:33:40;19.90;77.90
37806;DHT22;25082;50.870;0.022;2023-08-01T04:36:06;19.80;77.90
37806;DHT22;25082;50.870;0.022;2023-08-01T04:38:32;19.80;77.90
37806;DHT22;25082;50.870;0.022;2023-08-01T04:40:57;19.80;77.90
37806;DHT22;25082;50.870;0.022;2023-08-01T04:43:23;19.80;77.90
37806;DHT22;25082;50.870;0.022;2023-08-01T04:45:49;19.80;77.90
37806;DHT22;25082;50.870;0.022;2023-08-01T04:48:15;19.90;78.00
37806;DHT22;25082;50.870;0.022;2023-08-01T04:50:40;19.80;77.90
37806;DHT22;25082;50.870;0.022;2023-08-01T04:53:06;19.80;77.90
37806;DHT22;25082;50.870;0.022;2023-08-01T04:55:32;19.80;77.90
37806;DHT22;25082;50.870;0.022;2023-08-01T04:57:58;19.80;77.90
37806;DHT22;25082;50.870;0.022;2023-08-01T05:00:24;19.80;77.90
37806;DHT22;25082;50.870;0.022;2023-08-01T05:02:49;19.80;77.90
37806;DHT22;25082;50.870;0.022;2023-08-01T05:05:16;19.80;77.90
37806;DHT22;25082;50.870;0.022;2023-08-01T05:07:42;19.80;77.90
37806;DHT22;25082;50.870;0.022;2023-08-01T05:10:08;19.80;77.90
37806;DHT22;25082;50.870;0.022;2023-08-01T05:12:34;19.80;77.90
37806;DHT22;25082;50.870;0.022;2023-08-01T05:14:59;19.80;77.90
37806;DHT22;25082;50.870;0.022;2023-08-01T05:17:25;19.80;77.90
37806;DHT22;25082;50.870;0.022;2023-08-01T05:19:51;19.80;77.90
37806;DHT22;25082;50.870;0.022;2023-08-01T05:22:17;19.80;77.90
37806;DHT22;25082;50.870;0.022;2023-08-01T05:24:43;19.90;77.90
37806;DHT22;25082;50.870;0.022;2023-08-01T05:27:08;19.80;77.90
37806;DHT22;25082;50.870;0.022;2023-08-01T05:29:34;19.80;77.90
37806;DHT22;25082;50.870;0.022;2023-08-01T05:32:00;19.80;77.90
37806;DHT22;25082;50.870;0.022;2023-08-01T05:34:26;19.80;77.90
37806;DHT22;25082;50.870;0.022;2023-08-01T05:36:52;19.80;77.90
37806;DHT22;25082;50.870;0.022;2023-08-01T05:39:17;19.80;77.90
37806;DHT22;25082;50.870;0.022;2023-08-01T05:41:43;19.80;78.40
37806;DHT22;25082;50.870;0.022;2023-08-01T05:44:09;19.80;77.90
37806;DHT22;25082;50.870;0.022;2023-08-01T05:46:35;19.80;77.90
37806;DHT22;25082;50.870;0.022;2023-08-01T05:49:01;19.80;77.90
37806;DHT22;25082;50.870;0.022;2023-08-01T05:51:27;19.80;77.90
37806;DHT22;25082;50.870;0.022;2023-08-01T05:53:53;19.80;77.90
37806;DHT22;25082;50.870;0.022;2023-08-01T05:56:18;19.80;77.90
37806;DHT22;25082;50.870;0.022;2023-08-01T05:58:44;19.80;77.90
37806;DHT22;25082;50.870;0.022;2023-08-01T06:01:14;19.80;77.90
37806;DHT22;25082;50.870;0.022;2023-08-01T06:03:40;19.80;77.90
37806;DHT22;25082;50.870;0.022;2023-08-01T06:06:05;19.80;77.90
37806;DHT22;25082;50.870;0.022;2023-08-01T06:08:31;19.80;77.90
37806;DHT22;25082;50.870;0.022;2023-08-01T06:10:57;19.80;77.90
37806;DHT22;25082;50.870;0.022;2023-08-01T06:13:23;19.80;77.90
37806;DHT22;25082;50.870;0.022;2023-08-01T06:15:48;19.80;77.90
37806;DHT22;25082;50.870;0.022;2023-08-01T06:18:14;19.80;77.90
37806;DHT22;25082;50.870;0.022;2023-08-01T06:20:40;19.80;77.90
37806;DHT22;25082;50.870;0.022;2023-08-01T06:23:06;19.80;77.90
37806;DHT22;25082;50.870;0.022;2023-08-01T06:25:31;19.80;77.90
37806;DHT22;25082;50.870;0.022;2023-08-01T06:27:57;19.80;77.90
37806;DHT22;25082;50.870;0.022;2023-08-01T06:30:23;19.80;77.90
37806;DHT22;25082;50.870;0.022;2023-08-01T06:32:48;19.80;77.90
37806;DHT22;25082;50.870;0.022;2023-08-01T06:35:14;19.80;77.90
37806;DHT22;25082;50.870;0.022;2023-08-01T06:37:40;19.80;77.90
37806;DHT22;25082;50.870;0.022;2023-08-01T06:40:06;19.80;77.90
37806;DHT22;25082;50.870;0.022;2023-08-01T06:42:33;19.80;77.80
37806;DHT22;25082;50.870;0.022;2023-08-01T06:44:59;19.80;77.80
37806;DHT22;25082;50.870;0.022;2023-08-01T06:47:24;19.80;77.90
37806;DHT22;25082;50.870;0.022;2023-08-01T06:49:50;19.80;77.80
37806;DHT22;25082;50.870;0.022;2023-08-01T06:52:16;19.80;77.80
37806;DHT22;25082;50.870;0.022;2023-08-01T06:54:41;19.80;77.90
37806;DHT22;25082;50.870;0.022;2023-08-01T06:57:07;19.70;77.80
37806;DHT22;25082;50.870;0.022;2023-08-01T06:59:33;19.80;77.80
37806;DHT22;25082;50.870;0.022;2023-08-01T07:01:59;19.80;77.80
37806;DHT22;25082;50.870;0.022;2023-08-01T07:04:25;19.80;77.80
37806;DHT22;25082;50.870;0.022;2023-08-01T07:06:51;19.70;77.70
37806;DHT22;25082;50.870;0.022;2023-08-01T07:09:17;19.80;77.80
37806;DHT22;25082;50.870;0.022;2023-08-01T07:11:42;19.80;77.80
37806;DHT22;25082;50.870;0.022;2023-08-01T07:14:08;19.80;77.80
37806;DHT22;25082;50.870;0.022;2023-08-01T07:16:34;19.80;77.80
37806;DHT22;25082;50.870;0.022;2023-08-01T07:19:01;19.80;77.80
37806;DHT22;25082;50.870;0.022;2023-08-01T07:21:26;19.80;77.80
37806;DHT22;25082;50.870;0.022;2023-08-01T07:23:52;19.80;77.80
37806;DHT22;25082;50.870;0.022;2023-08-01T07:26:18;19.80;77.70
37806;DHT22;25082;50.870;0.022;2023-08-01T07:28:44;19.80;77.80
37806;DHT22;25082;50.870;0.022;2023-08-01T07:31:09;19.80;77.70
37806;DHT22;25082;50.870;0.022;2023-08-01T07:33:35;19.80;77.70
37806;DHT22;25082;50.870;0.022;2023-08-01T07:36:02;19.80;77.70
37806;DHT22;25082;50.870;0.022;2023-08-01T07:38:28;19.80;77.70
37806;DHT22;25082;50.870;0.022;2023-08-01T07:40:55;19.80;77.70
37806;DHT22;25082;50.870;0.022;2023-08-01T07:43:21;19.80;77.80
37806;DHT22;25082;50.870;0.022;2023-08-01T07:45:46;19.80;77.70
37806;DHT22;25082;50.870;0.022;2023-08-01T07:48:15;19.80;77.70
37806;DHT22;25082;50.870;0.022;2023-08-01T07:50:41;19.80;77.70
37806;DHT22;25082;50.870;0.022;2023-08-01T07:53:07;19.80;77.70
37806;DHT22;25082;50.870;0.022;2023-08-01T07:55:35;19.80;77.70
37806;DHT22;25082;50.870;0.022;2023-08-01T07:58:01;19.80;77.60
37806;DHT22;25082;50.870;0.022;2023-08-01T08:00:27;19.80;77.70
37806;DHT22;25082;50.870;0.022;2023-08-01T08:02:53;19.90;77.70
37806;DHT22;25082;50.870;0.022;2023-08-01T08:05:19;19.80;77.60
37806;DHT22;25082;50.870;0.022;2023-08-01T08:07:45;19.80;77.60
37806;DHT22;25082;50.870;0.022;2023-08-01T08:10:10;19.80;77.40
37806;DHT22;25082;50.870;0.022;2023-08-01T08:12:36;19.90;77.40
37806;DHT22;25082;50.870;0.022;2023-08-01T08:15:02;19.90;77.20
37806;DHT22;25082;50.870;0.022;2023-08-01T08:17:28;19.90;77.20
37806;DHT22;25082;50.870;0.022;2023-08-01T08:19:54;19.90;77.20
37806;DHT22;25082;50.870;0.022;2023-08-01T08:22:19;19.80;77.20
37806;DHT22;25082;50.870;0.022;2023-08-01T08:24:45;19.90;77.10
37806;DHT22;25082;50.870;0.022;2023-08-01T08:27:11;19.90;77.10
37806;DHT22;25082;50.870;0.022;2023-08-01T08:29:36;19.90;76.90
37806;DHT22;25082;50.870;0.022;2023-08-01T08:32:02;19.90;77.60
37806;DHT22;25082;50.870;0.022;2023-08-01T08:34:28;19.90;77.00
37806;DHT22;25082;50.870;0.022;2023-08-01T08:36:54;19.90;77.20
37806;DHT22;25082;50.870;0.022;2023-08-01T08:39:19;19.90;77.00
37806;DHT22;25082;50.870;0.022;2023-08-01T08:41:47;19.90;77.10
37806;DHT22;25082;50.870;0.022;2023-08-01T08:44:15;19.90;77.00
37806;DHT22;25082;50.870;0.022;2023-08-01T08:46:53;19.90;77.10
37806;DHT22;25082;50.870;0.022;2023-08-01T08:49:20;19.90;77.10
37806;DHT22;25082;50.870;0.022;2023-08-01T08:51:47;19.90;77.10
37806;DHT22;25082;50.870;0.022;2023-08-01T08:54:15;19.90;77.20
37806;DHT22;25082;50.870;0.022;2023-08-01T08:56:41;19.90;77.10
37806;DHT22;25082;50.870;0.022;2023-08-01T08:59:10;19.90;77.10
37806;DHT22;25082;50.870;0.022;2023-08-01T09:01:37;19.90;77.10
37806;DHT22;25082;50.870;0.022;2023-08-01T09:04:04;19.90;76.40
37806;DHT22;25082;50.870;0.022;2023-08-01T09:06:33;19.90;76.20
37806;DHT22;25082;50.870;0.022;2023-08-01T09:09:09;19.90;76.10
37806;DHT22;25082;50.870;0.022;2023-08-01T09:11:44;19.90;76.20
37806;DHT22;25082;50.870;0.022;2023-08-01T09:14:10;19.90;76.20
37806;DHT22;25082;50.870;0.022;2023-08-01T09:16:36;19.90;76.10
37806;DHT22;25082;50.870;0.022;2023-08-01T09:19:02;19.90;76.10
37806;DHT22;25082;50.870;0.022;2023-08-01T09:21:32;19.90;76.10
37806;DHT22;25082;50.870;0.022;2023-08-01T09:24:10;19.90;76.10
37806;DHT22;25082;50.870;0.022;2023-08-01T09:26:37;19.90;76.10
37806;DHT22;25082;50.870;0.022;2023-08-01T09:29:02;19.90;76.10
37806;DHT22;25082;50.870;0.022;2023-08-01T09:31:33;19.90;76.10
37806;DHT22;25082;50.870;0.022;2023-08-01T09:34:01;19.90;76.20
37806;DHT22;25082;50.870;0.022;2023-08-01T09:36:29;19.90;76.10
37806;DHT22;25082;50.870;0.022;2023-08-01T09:39:03;19.90;76.10
37806;DHT22;25082;50.870;0.022;2023-08-01T09:41:30;19.90;76.10
37806;DHT22;25082;50.870;0.022;2023-08-01T09:43:56;19.90;76.30
37806;DHT22;25082;50.870;0.022;2023-08-01T09:46:23;19.90;76.10
37806;DHT22;25082;50.870;0.022;2023-08-01T09:48:48;19.90;75.90
37806;DHT22;25082;50.870;0.022;2023-08-01T09:51:16;19.90;76.60
37806;DHT22;25082;50.870;0.022;2023-08-01T09:54:00;19.90;76.10
37806;DHT22;25082;50.870;0.022;2023-08-01T09:56:27;19.90;76.20
37806;DHT22;25082;50.870;0.022;2023-08-01T09:58:54;19.90;76.30
37806;DHT22;25082;50.870;0.022;2023-08-01T10:01:23;19.90;76.20
37806;DHT22;25082;50.870;0.022;2023-08-01T10:03:52;19.90;76.10
37806;DHT22;25082;50.870;0.022;2023-08-01T10:06:20;19.90;76.00
37806;DHT22;25082;50.870;0.022;2023-08-01T10:08:46;19.90;76.10
37806;DHT22;25082;50.870;0.022;2023-08-01T10:11:14;19.90;76.20
37806;DHT22;25082;50.870;0.022;2023-08-01T10:13:42;19.90;76.10
37806;DHT22;25082;50.870;0.022;2023-08-01T10:16:09;19.90;75.80
37806;DHT22;25082;50.870;0.022;2023-08-01T10:18:36;19.90;75.80
37806;DHT22;25082;50.870;0.022;2023-08-01T10:21:06;19.90;75.90
37806;DHT22;25082;50.870;0.022;2023-08-01T10:23:35;20.00;75.80
37806;DHT22;25082;50.870;0.022;2023-08-01T10:26:05;19.90;75.90
37806;DHT22;25082;50.870;0.022;2023-08-01T10:28:39;19.90;75.70
37806;DHT22;25082;50.870;0.022;2023-08-01T10:31:08;19.90;75.50
37806;DHT22;25082;50.870;0.022;2023-08-01T10:33:35;19.90;75.60
37806;DHT22;25082;50.870;0.022;2023-08-01T10:36:00;19.90;75.70
37806;DHT22;25082;50.870;0.022;2023-08-01T10:38:47;20.00;75.60
37806;DHT22;25082;50.870;0.022;2023-08-01T10:41:34;19.90;75.70
37806;DHT22;25082;50.870;0.022;2023-08-01T10:44:07;20.00;75.80
37806;DHT22;25082;50.870;0.022;2023-08-01T10:49:16;20.00;75.70
37806;DHT22;25082;50.870;0.022;2023-08-01T10:51:43;20.00;75.50
37806;DHT22;25082;50.870;0.022;2023-08-01T10:54:21;20.00;75.40
37806;DHT22;25082;50.870;0.022;2023-08-01T10:56:47;20.00;75.40
37806;DHT22;25082;50.870;0.022;2023-08-01T10:59:14;20.00;75.20
37806;DHT22;25082;50.870;0.022;2023-08-01T11:01:49;20.00;75.30
37806;DHT22;25082;50.870;0.022;2023-08-01T11:04:22;20.00;75.20
37806;DHT22;25082;50.870;0.022;2023-08-01T11:06:53;20.00;75.50
37806;DHT22;25082;50.870;0.022;2023-08-01T11:09:26;20.00;75.50
37806;DHT22;25082;50.870;0.022;2023-08-01T11:11:54;20.00;75.50
37806;DHT22;25082;50.870;0.022;2023-08-01T11:14:25;20.00;75.60
37806;DHT22;25082;50.870;0.022;2023-08-01T11:16:53;20.00;75.60
37806;DHT22;25082;50.870;0.022;2023-08-01T11:19:27;20.00;75.60
37806;DHT22;25082;50.870;0.022;2023-08-01T11:21:54;20.00;75.50
37806;DHT22;25082;50.870;0.022;2023-08-01T11:24:25;20.00;75.50
37806;DHT22;25082;50.870;0.022;2023-08-01T11:26:53;20.00;75.50
37806;DHT22;25082;50.870;0.022;2023-08-01T11:29:19;20.00;75.60
37806;DHT22;25082;50.870;0.022;2023-08-01T11:31:56;20.00;75.60
37806;DHT22;25082;50.870;0.022;2023-08-01T11:34:22;20.00;75.70
37806;DHT22;25082;50.870;0.022;2023-08-01T11:36:48;20.00;75.70
37806;DHT22;25082;50.870;0.022;2023-08-01T11:39:15;20.00;75.70
37806;DHT22;25082;50.870;0.022;2023-08-01T11:41:42;20.00;75.70
37806;DHT22;25082;50.870;0.022;2023-08-01T11:44:08;20.00;75.80
37806;DHT22;25082;50.870;0.022;2023-08-01T11:46:37;20.00;75.90
37806;DHT22;25082;50.870;0.022;2023-08-01T11:49:05;20.00;75.80
37806;DHT22;25082;50.870;0.022;2023-08-01T11:51:39;20.00;75.80
37806;DHT22;25082;50.870;0.022;2023-08-01T11:54:05;20.00;76.00
37806;DHT22;25082;50.870;0.022;2023-08-01T11:56:33;20.00;76.00
37806;DHT22;25082;50.870;0.022;2023-08-01T11:58:59;20.00;76.00
37806;DHT22;25082;50.870;0.022;2023-08-01T12:01:25;20.00;76.00
37806;DHT22;25082;50.870;0.022;2023-08-01T12:03:53;20.00;76.10
37806;DHT22;25082;50.870;0.022;2023-08-01T12:06:22;20.00;76.20
37806;DHT22;25082;50.870;0.022;2023-08-01T12:08:50;20.10;76.30
37806;DHT22;25082;50.870;0.022;2023-08-01T12:11:22;20.10;76.40
37806;DHT22;25082;50.870;0.022;2023-08-01T12:14:09;20.10;76.50
37806;DHT22;25082;50.870;0.022;2023-08-01T12:16:37;20.10;76.50
37806;DHT22;25082;50.870;0.022;2023-08-01T12:19:03;20.10;76.50
37806;DHT22;25082;50.870;0.022;2023-08-01T12:21:30;20.10;76.50
37806;DHT22;25082;50.870;0.022;2023-08-01T12:23:56;20.10;76.50
37806;DHT22;25082;50.870;0.022;2023-08-01T12:26:22;20.20;76.50
37806;DHT22;25082;50.870;0.022;2023-08-01T12:28:49;20.20;76.60
37806;DHT22;25082;50.870;0.022;2023-08-01T12:31:18;20.20;76.50
37806;DHT22;25082;50.870;0.022;2023-08-01T12:33:44;20.20;76.60
37806;DHT22;25082;50.870;0.022;2023-08-01T12:36:11;20.20;76.70
37806;DHT22;25082;50.870;0.022;2023-08-01T12:38:37;20.20;76.80
37806;DHT22;25082;50.870;0.022;2023-08-01T12:41:02;20.20;76.80
37806;DHT22;25082;50.870;0.022;2023-08-01T12:43:28;20.30;77.00
37806;DHT22;25082;50.870;0.022;2023-08-01T12:45:54;20.30;77.00
37806;DHT22;25082;50.870;0.022;2023-08-01T12:48:21;20.30;77.00
37806;DHT22;25082;50.870;0.022;2023-08-01T12:50:47;20.30;77.10
37806;DHT22;25082;50.870;0.022;2023-08-01T12:53:14;20.30;77.10
37806;DHT22;25082;50.870;0.022;2023-08-01T12:55:49;20.30;77.20
37806;DHT22;25082;50.870;0.022;2023-08-01T12:58:16;20.30;77.20
37806;DHT22;25082;50.870;0.022;2023-08-01T13:00:43;20.30;77.30
37806;DHT22;25082;50.870;0.022;2023-08-01T13:03:10;20.30;77.30
37806;DHT22;25082;50.870;0.022;2023-08-01T13:05:38;20.30;77.30
37806;DHT22;25082;50.870;0.022;2023-08-01T13:08:05;20.30;77.30
37806;DHT22;25082;50.870;0.022;2023-08-01T13:10:35;20.30;77.30
37806;DHT22;25082;50.870;0.022;2023-08-01T13:13:01;20.30;77.20
37806;DHT22;25082;50.870;0.022;2023-08-01T13:15:28;20.30;77.20
37806;DHT22;25082;50.870;0.022;2023-08-01T13:17:54;20.30;77.10
37806;DHT22;25082;50.870;0.022;2023-08-01T13:20:20;20.30;77.10
37806;DHT22;25082;50.870;0.022;2023-08-01T13:22:48;20.30;77.20
37806;DHT22;25082;50.870;0.022;2023-08-01T13:25:14;20.30;77.20
37806;DHT22;25082;50.870;0.022;2023-08-01T13:27:40;20.30;77.20
37806;DHT22;25082;50.870;0.022;2023-08-01T13:30:06;20.40;77.30
37806;DHT22;25082;50.870;0.022;2023-08-01T13:32:32;20.30;77.20
37806;DHT22;25082;50.870;0.022;2023-08-01T13:34:58;20.40;77.30
37806;DHT22;25082;50.870;0.022;2023-08-01T13:37:23;20.40;77.20
37806;DHT22;25082;50.870;0.022;2023-08-01T13:39:49;20.40;77.20
37806;DHT22;25082;50.870;0.022;2023-08-01T13:42:15;20.40;77.20
37806;DHT22;25082;50.870;0.022;2023-08-01T13:44:41;20.40;77.10
37806;DHT22;25082;50.870;0.022;2023-08-01T13:47:07;20.30;77.10
37806;DHT22;25082;50.870;0.022;2023-08-01T13:49:33;20.40;77.10
37806;DHT22;25082;50.870;0.022;2023-08-01T13:51:59;20.40;77.10
37806;DHT22;25082;50.870;0.022;2023-08-01T13:54:25;20.40;77.10
37806;DHT22;25082;50.870;0.022;2023-08-01T13:56:51;20.30;77.10
37806;DHT22;25082;50.870;0.022;2023-08-01T13:59:18;20.30;77.10
37806;DHT22;25082;50.870;0.022;2023-08-01T14:01:46;20.30;77.10
37806;DHT22;25082;50.870;0.022;2023-08-01T14:04:11;20.40;77.60
37806;DHT22;25082;50.870;0.022;2023-08-01T14:06:40;20.40;77.10
37806;DHT22;25082;50.870;0.022;2023-08-01T14:09:08;20.40;77.00
37806;DHT22;25082;50.870;0.022;2023-08-01T14:11:34;20.40;76.80
37806;DHT22;25082;50.870;0.022;2023-08-01T14:14:00;20.40;76.80
37806;DHT22;25082;50.870;0.022;2023-08-01T14:16:26;20.30;76.70
37806;DHT22;25082;50.870;0.022;2023-08-01T14:18:52;20.40;76.90
37806;DHT22;25082;50.870;0.022;2023-08-01T14:21:18;20.40;77.10
37806;DHT22;25082;50.870;0.022;2023-08-01T14:23:43;20.40;77.20
37806;DHT22;25082;50.870;0.022;2023-08-01T14:26:09;20.40;77.20
37806;DHT22;25082;50.870;0.022;2023-08-01T14:28:35;20.40;77.10
37806;DHT22;25082;50.870;0.022;2023-08-01T14:31:02;20.40;77.30
37806;DHT22;25082;50.870;0.022;2023-08-01T14:33:28;20.40;77.40
37806;DHT22;25082;50.870;0.022;2023-08-01T14:35:55;20.40;77.60
37806;DHT22;25082;50.870;0.022;2023-08-01T14:38:21;20.40;78.00
37806;DHT22;25082;50.870;0.022;2023-08-01T14:40:47;20.50;77.80
37806;DHT22;25082;50.870;0.022;2023-08-01T14:43:13;20.40;77.70
37806;DHT22;25082;50.870;0.022;2023-08-01T14:45:42;20.40;77.60
37806;DHT22;25082;50.870;0.022;2023-08-01T14:48:08;20.40;77.60
37806;DHT22;25082;50.870;0.022;2023-08-01T14:50:34;20.50;77.70
37806;DHT22;25082;50.870;0.022;2023-08-01T14:53:01;20.40;77.60
37806;DHT22;25082;50.870;0.022;2023-08-01T14:55:31;20.50;77.70
37806;DHT22;25082;50.870;0.022;2023-08-01T14:57:57;20.50;78.00
37806;DHT22;25082;50.870;0.022;2023-08-01T15:00:23;20.50;77.90
37806;DHT22;25082;50.870;0.022;2023-08-01T15:02:48;20.50;77.80
37806;DHT22;25082;50.870;0.022;2023-08-01T15:05:14;20.50;77.90
37806;DHT22;25082;50.870;0.022;2023-08-01T15:07:40;20.50;78.00
37806;DHT22;25082;50.870;0.022;2023-08-01T15:10:06;20.50;78.00
37806;DHT22;25082;50.870;0.022;2023-08-01T15:12:32;20.50;78.00
37806;DHT22;25082;50.870;0.022;2023-08-01T15:14:58;20.50;78.00
37806;DHT22;25082;50.870;0.022;2023-08-01T15:17:24;20.50;78.00
37806;DHT22;25082;50.870;0.022;2023-08-01T15:19:50;20.50;77.70
37806;DHT22;25082;50.870;0.022;2023-08-01T15:22:17;20.50;77.80
37806;DHT22;25082;50.870;0.022;2023-08-01T15:24:43;20.50;77.80
37806;DHT22;25082;50.870;0.022;2023-08-01T15:27:10;20.50;77.70
37806;DHT22;25082;50.870;0.022;2023-08-01T15:29:36;20.50;77.70